Time;durP1;ratioP1;P1;durP2;ratioP2;P2;SDS_P1;SDS_P2;PMS_P1;PMS_P2;Temp;Humidity;BMP_temperature;BMP_pressure;BME280_temperature;BME280_humidity;BME280_pressure;Samples;Min_cycle;Max_cycle;Signal;HPM_P1;HPM_P2
2022/05/18 00:01:59;;;;;;;8.30;4.30;;;;;;;24.38;48.94;101938.69;5081014;28;20048;-60
2022/05/18 00:04:27;;;;;;;5.65;4.10;;;;;;;24.37;49.36;101945.09;5079865;28;20052;-60
2022/05/18 00:06:53;;;;;;;7.53;4.05;;;;;;;24.38;48.75;101945.97;5084666;28;20036;-60
2022/05/18 00:09:20;;;;;;;7.13;4.18;;;;;;;24.36;48.70;101945.25;5083090;28;20056;-60
2022/05/18 00:11:46;;;;;;;6.10;3.90;;;;;;;24.35;49.08;101946.25;5084597;28;20561;-60
2022/05/18 00:14:13;;;;;;;7.65;4.30;;;;;;;24.35;49.03;101948.97;5082109;28;20059;-60
2022/05/18 00:16:40;;;;;;;10.00;4.43;;;;;;;24.34;49.19;101952.69;5082861;28;20127;-60
2022/05/18 00:19:06;;;;;;;7.13;4.60;;;;;;;24.32;48.91;101954.72;5081415;28;20054;-61
2022/05/18 00:21:33;;;;;;;8.15;3.88;;;;;;;24.31;49.37;101953.88;5078819;28;20040;-61
2022/05/18 00:23:59;;;;;;;6.97;4.32;;;;;;;24.30;49.44;101962.19;5078226;28;20048;-60
2022/05/18 00:26:26;;;;;;;6.35;4.10;;;;;;;24.29;49.27;101960.50;5077065;28;20052;-62
2022/05/18 00:28:53;;;;;;;5.57;3.53;;;;;;;24.29;49.08;101963.22;5077131;28;20040;-61
2022/05/18 00:31:19;;;;;;;6.18;3.80;;;;;;;24.29;49.29;101971.34;5078960;28;20399;-60
2022/05/18 00:33:46;;;;;;;5.25;3.45;;;;;;;24.26;49.23;101971.66;5078102;28;20083;-61
2022/05/18 00:36:13;;;;;;;6.85;3.70;;;;;;;24.26;49.65;101971.66;5079228;28;20036;-60
2022/05/18 00:38:40;;;;;;;7.22;3.92;;;;;;;24.25;49.12;101968.13;5079810;28;20417;-60
2022/05/18 00:41:06;;;;;;;7.03;4.00;;;;;;;24.24;49.03;101973.69;5073944;28;20048;-60
2022/05/18 00:43:33;;;;;;;6.05;3.88;;;;;;;24.22;49.46;101973.00;5078004;28;20058;-60
2022/05/18 00:46:03;;;;;;;7.93;4.47;;;;;;;24.23;49.08;101974.69;5076838;28;20059;-60
2022/05/18 00:48:30;;;;;;;5.13;4.00;;;;;;;24.20;49.41;101975.91;5080243;28;20076;-60
2022/05/18 00:51:00;;;;;;;6.93;4.25;;;;;;;24.20;49.59;101969.63;5084230;28;20123;-60
2022/05/18 00:53:50;;;;;;;7.75;4.00;;;;;;;24.18;49.92;101974.38;5077774;28;20142;-60
2022/05/18 00:56:23;;;;;;;8.82;3.85;;;;;;;24.17;49.47;101970.81;5079866;28;20052;-61
2022/05/18 00:59:04;;;;;;;6.68;3.70;;;;;;;24.17;49.50;101972.69;5076769;28;20047;-61
2022/05/18 01:01:31;;;;;;;6.15;4.07;;;;;;;24.14;49.63;101971.97;5075007;28;21297;-61
2022/05/18 01:04:02;;;;;;;7.82;3.63;;;;;;;24.14;49.84;101965.72;5076427;28;20174;-61
2022/05/18 01:06:37;;;;;;;6.15;4.43;;;;;;;24.12;49.98;101971.31;5079287;28;21772;-61
2022/05/18 01:09:07;;;;;;;6.75;3.85;;;;;;;24.12;49.72;101971.31;5076133;28;20050;-60
2022/05/18 01:11:36;;;;;;;6.80;4.25;;;;;;;24.11;49.37;101968.75;5076393;28;20054;-60
2022/05/18 01:14:06;;;;;;;8.30;3.88;;;;;;;24.11;49.54;101969.59;5075729;28;20462;-60
2022/05/18 01:16:33;;;;;;;6.63;3.92;;;;;;;24.10;49.76;101973.31;5077306;28;20058;-61
2022/05/18 01:19:00;;;;;;;6.57;3.83;;;;;;;24.10;49.73;101967.06;5079031;28;20066;-60
2022/05/18 01:21:34;;;;;;;8.27;3.85;;;;;;;24.08;50.08;101958.25;5084112;28;20391;-60
2022/05/18 01:24:04;;;;;;;;;;;;;;;24.06;49.56;101969.25;5080023;28;20312;-60
2022/05/18 01:26:39;;;;;;;5.32;3.40;;;;;;;24.08;49.97;101961.84;5076977;28;19959;-60
2022/05/18 01:29:06;;;;;;;4.50;3.13;;;;;;;24.07;50.00;101962.81;5079882;28;20056;-60
2022/05/18 01:32:00;;;;;;;5.97;3.72;;;;;;;24.04;50.42;101965.00;5080472;28;20043;-61
2022/05/18 01:34:30;;;;;;;5.97;4.07;;;;;;;24.04;50.04;101965.88;5073015;28;20127;-61
2022/05/18 01:36:56;;;;;;;7.88;4.13;;;;;;;24.04;50.04;101965.88;5074464;28;20066;-59
2022/05/18 01:39:34;;;;;;;5.25;3.58;;;;;;;24.03;50.12;101972.28;5058610;28;20040;-60
2022/05/18 01:42:06;;;;;;;6.13;4.05;;;;;;;24.02;49.88;101976.03;5076625;28;20521;-59
2022/05/18 01:44:37;;;;;;;6.55;4.10;;;;;;;24.02;49.82;101965.19;5082868;28;20330;-60
2022/05/18 01:47:04;;;;;;;6.15;4.00;;;;;;;24.01;49.67;101963.50;5083634;28;20075;-59
2022/05/18 01:49:33;;;;;;;5.85;3.55;;;;;;;24.00;50.14;101969.06;5074772;28;20049;-60
2022/05/18 01:52:01;;;;;;;6.00;3.60;;;;;;;23.99;49.66;101965.50;5076244;28;20082;-60
2022/05/18 01:54:27;;;;;;;6.57;4.00;;;;;;;23.98;49.62;101961.13;5079476;28;20044;-60
2022/05/18 01:56:54;;;;;;;6.57;4.30;;;;;;;23.98;49.90;101955.69;5081771;28;20046;-60
2022/05/18 01:59:20;;;;;;;6.45;4.03;;;;;;;23.97;49.82;101955.88;5082578;28;20330;-60
2022/05/18 02:01:48;;;;;;;6.78;4.07;;;;;;;23.97;50.22;101947.75;5080081;28;20130;-61
2022/05/18 02:04:16;;;;;;;5.53;3.90;;;;;;;23.96;50.06;101946.91;5080331;28;20051;-61
2022/05/18 02:06:42;;;;;;;4.93;3.17;;;;;;;23.96;50.17;101959.56;5077196;28;20062;-59
2022/05/18 02:09:09;;;;;;;4.30;3.60;;;;;;;23.95;50.45;101956.03;5076315;28;20047;-60
2022/05/18 02:11:35;;;;;;;7.03;4.10;;;;;;;23.95;50.46;101950.59;5079988;28;20044;-61
2022/05/18 02:14:03;;;;;;;6.90;4.10;;;;;;;23.94;50.19;101951.63;5083550;28;20127;-59
2022/05/18 02:16:29;;;;;;;6.05;3.50;;;;;;;23.93;50.02;101944.53;5083999;28;20407;-61
2022/05/18 02:18:56;;;;;;;6.10;3.88;;;;;;;23.94;50.34;101950.78;5086124;28;20058;-59
2022/05/18 02:21:22;;;;;;;6.95;3.65;;;;;;;23.94;50.06;101942.66;5088626;28;20047;-59
2022/05/18 02:23:49;;;;;;;5.32;3.53;;;;;;;23.91;50.27;101946.53;5078932;28;20052;-60
2022/05/18 02:26:17;;;;;;;4.78;3.47;;;;;;;23.90;49.82;101939.44;5080148;28;20054;-60
2022/05/18 02:28:44;;;;;;;5.22;3.78;;;;;;;23.90;49.88;101936.72;5080887;28;20864;-60
2022/05/18 02:31:12;;;;;;;5.82;3.47;;;;;;;23.90;50.13;101942.16;5080208;28;20058;-60
2022/05/18 02:33:39;;;;;;;6.72;4.03;;;;;;;23.87;50.40;101937.91;5081113;28;20134;-59
2022/05/18 02:36:07;;;;;;;5.45;4.07;;;;;;;23.88;50.40;101930.66;5078221;28;20127;-60
2022/05/18 02:38:38;;;;;;;5.10;3.40;;;;;;;23.87;49.99;101931.63;5079303;28;20036;-60
2022/05/18 02:41:05;;;;;;;6.13;3.38;;;;;;;23.86;50.39;101930.78;5083480;28;20677;-60
2022/05/18 02:43:37;;;;;;;6.45;3.80;;;;;;;23.86;50.38;101932.66;5081957;28;20076;-60
2022/05/18 02:46:19;;;;;;;5.55;3.60;;;;;;;23.84;50.19;101935.53;5082490;28;20043;-59
2022/05/18 02:48:47;;;;;;;5.82;3.63;;;;;;;23.84;50.62;101932.84;5080955;28;20046;-60
2022/05/18 02:51:15;;;;;;;4.75;3.67;;;;;;;23.85;50.71;101934.53;5083164;28;20135;-59
2022/05/18 02:53:42;;;;;;;5.95;3.90;;;;;;;23.83;50.42;101925.69;5081014;28;20677;-61
2022/05/18 02:56:23;;;;;;;5.25;3.65;;;;;;;23.83;50.36;101928.41;5080053;28;20788;-60
2022/05/18 02:58:52;;;;;;;5.40;3.65;;;;;;;23.82;50.81;101937.56;5085532;28;20135;-61
2022/05/18 03:01:21;;;;;;;7.43;3.55;;;;;;;23.82;50.47;101937.56;5083154;28;20047;-62
2022/05/18 03:03:49;;;;;;;6.43;4.00;;;;;;;23.80;50.52;101936.88;5078309;28;20048;-60
2022/05/18 03:06:18;;;;;;;5.95;3.33;;;;;;;23.81;50.36;101941.28;5079909;28;20062;-60
2022/05/18 03:08:45;;;;;;;5.32;3.65;;;;;;;23.81;50.17;101943.16;5080613;28;20051;-60
2022/05/18 03:11:13;;;;;;;6.00;3.08;;;;;;;23.80;50.64;101950.44;5086585;28;20507;-59
2022/05/18 03:13:40;;;;;;;4.80;3.72;;;;;;;23.80;50.62;101960.38;5080179;28;20049;-59
2022/05/18 03:16:07;;;;;;;6.63;4.07;;;;;;;23.79;50.21;101956.84;5079719;28;20052;-59
2022/05/18 03:18:34;;;;;;;6.10;3.85;;;;;;;23.79;50.87;101962.25;5080287;28;20085;-60
2022/05/18 03:23:47;;;;;;;5.43;3.50;;;;;;;23.80;50.25;101965.78;5080605;28;20053;-60
2022/05/18 03:26:17;;;;;;;4.93;3.28;;;;;;;23.79;50.18;101969.53;5087343;28;20039;-59
2022/05/18 03:28:46;;;;;;;5.55;3.90;;;;;;;23.78;50.34;101970.53;5077483;28;20423;-60
2022/05/18 03:31:13;;;;;;;4.40;3.38;;;;;;;23.77;50.70;101967.00;5080982;28;20048;-59
2022/05/18 03:33:39;;;;;;;5.82;3.10;;;;;;;23.77;50.62;101966.16;5076810;28;20090;-61
2022/05/18 03:36:08;;;;;;;5.88;3.45;;;;;;;23.77;50.88;101967.00;5081988;28;20048;-60
2022/05/18 03:38:34;;;;;;;3.58;2.80;;;;;;;23.76;50.71;101959.88;5083163;28;20050;-59
2022/05/18 03:41:01;;;;;;;7.95;3.47;;;;;;;23.77;50.14;101963.44;5083985;28;20322;-59
2022/05/18 03:43:28;;;;;;;6.22;3.60;;;;;;;23.76;50.56;101964.44;5082973;28;20052;-60
2022/05/18 03:45:55;;;;;;;6.68;3.83;;;;;;;23.75;50.37;101963.59;5080585;28;20335;-60
2022/05/18 03:48:22;;;;;;;4.45;3.30;;;;;;;23.74;50.67;101961.91;5059001;28;20050;-60
2022/05/18 03:50:49;;;;;;;4.20;3.20;;;;;;;23.74;50.89;101971.88;5080088;28;20048;-61
2022/05/18 03:53:16;;;;;;;5.80;3.17;;;;;;;23.72;50.45;101966.66;5081605;28;20450;-59
2022/05/18 03:55:44;;;;;;;8.48;3.95;;;;;;;23.73;50.58;101975.59;5079301;28;20060;-61
2022/05/18 03:58:13;;;;;;;17.75;5.75;;;;;;;23.73;50.93;101976.47;5083913;28;20191;-59
2022/05/18 04:00:41;;;;;;;18.65;6.55;;;;;;;23.72;50.85;101984.72;5082445;28;20043;-59
2022/05/18 04:03:09;;;;;;;28.95;6.85;;;;;;;23.72;50.75;101985.59;5080753;28;20051;-59
2022/05/18 04:05:40;;;;;;;27.23;7.15;;;;;;;23.71;50.85;101974.91;5078095;28;20052;-59
2022/05/18 04:08:09;;;;;;;22.55;6.45;;;;;;;23.71;51.18;101977.63;5081894;28;20134;-59
2022/05/18 04:10:38;;;;;;;25.10;7.18;;;;;;;23.71;51.00;101975.75;5079291;28;20048;-59
2022/05/18 04:13:07;;;;;;;20.30;6.47;;;;;;;23.71;50.66;101983.03;5079647;28;20051;-60
2022/05/18 04:15:33;;;;;;;21.13;6.72;;;;;;;23.71;50.50;101991.16;5082853;28;20051;-58
2022/05/18 04:18:00;;;;;;;19.70;6.90;;;;;;;23.70;50.69;101998.44;5077621;28;20055;-59
2022/05/18 04:20:27;;;;;;;19.45;6.93;;;;;;;23.71;50.41;102002.81;5079240;28;20135;-61
2022/05/18 04:22:54;;;;;;;14.85;6.63;;;;;;;23.70;50.62;102028.22;5089938;28;20131;-59
2022/05/18 04:25:26;;;;;;;18.30;7.22;;;;;;;23.70;50.99;102019.25;5087470;28;20490;-61
2022/05/18 04:27:53;;;;;;;17.77;8.15;;;;;;;23.69;50.35;102026.53;5086568;28;20040;-60
2022/05/18 04:30:23;;;;;;;13.65;7.15;;;;;;;23.69;50.79;102045.47;5087595;28;20126;-60
2022/05/18 04:32:50;;;;;;;16.70;7.57;;;;;;;23.69;50.58;102039.22;5090893;28;20342;-60
2022/05/18 04:35:19;;;;;;;21.77;7.20;;;;;;;23.69;50.50;102041.91;5088699;28;20179;-60
2022/05/18 04:37:47;;;;;;;25.13;8.05;;;;;;;23.70;50.29;102043.59;5087398;28;20043;-61
2022/05/18 04:40:13;;;;;;;17.65;6.65;;;;;;;23.71;50.80;102045.28;5087985;28;20050;-61
2022/05/18 04:42:40;;;;;;;18.95;7.40;;;;;;;23.71;50.41;102048.84;5087333;28;20062;-60
2022/05/18 04:45:14;;;;;;;21.88;8.57;;;;;;;23.71;50.88;102035.31;5088200;28;20044;-60
2022/05/18 04:47:40;;;;;;;14.02;7.60;;;;;;;23.73;50.76;102056.81;5090475;28;20432;-61
2022/05/18 04:50:08;;;;;;;17.98;7.85;;;;;;;23.73;50.58;102046.84;5087989;28;20898;-61
2022/05/18 04:52:34;;;;;;;22.55;8.52;;;;;;;23.74;50.05;102039.56;5083130;28;20134;-61
2022/05/18 04:55:01;;;;;;;18.65;7.50;;;;;;;23.76;50.23;102033.00;5072883;28;20066;-60
2022/05/18 04:57:27;;;;;;;12.98;7.22;;;;;;;23.79;49.93;102034.50;5088720;28;20150;-59
2022/05/18 04:59:54;;;;;;;16.95;6.95;;;;;;;23.80;49.95;102045.19;5072650;28;20500;-59
2022/05/18 05:02:20;;;;;;;14.90;7.68;;;;;;;23.84;50.01;102045.69;5088061;28;20052;-60
2022/05/18 05:04:47;;;;;;;13.90;6.55;;;;;;;23.85;49.90;102045.53;5089340;28;20052;-58
2022/05/18 05:07:14;;;;;;;15.93;7.80;;;;;;;23.87;49.78;102045.38;5090895;28;20054;-60
2022/05/18 05:09:40;;;;;;;12.98;7.43;;;;;;;23.89;49.93;102052.31;5087524;28;20335;-60
2022/05/18 05:12:08;;;;;;;15.88;7.93;;;;;;;23.91;49.26;102054.00;5089528;28;20056;-61
2022/05/18 05:14:39;;;;;;;15.73;7.90;;;;;;;23.91;49.73;102056.72;5087704;28;20054;-60
2022/05/18 05:17:06;;;;;;;16.58;8.07;;;;;;;23.92;49.31;102050.28;5089978;28;20144;-62
2022/05/18 05:19:36;;;;;;;12.95;7.00;;;;;;;23.94;49.55;102059.09;5086662;28;20040;-59
2022/05/18 05:22:03;;;;;;;15.85;7.82;;;;;;;23.92;49.75;102050.28;5087845;28;20140;-59
2022/05/18 05:24:30;;;;;;;14.07;7.47;;;;;;;23.93;49.38;102044.72;5089406;28;20059;-60
2022/05/18 05:26:57;;;;;;;15.73;7.47;;;;;;;23.94;48.99;102048.28;5088146;28;20510;-60
2022/05/18 05:29:23;;;;;;;12.88;7.80;;;;;;;23.94;49.01;102048.28;5087668;28;20132;-59
2022/05/18 05:31:50;;;;;;;14.43;7.57;;;;;;;23.94;48.98;102054.53;5085922;28;20435;-60
2022/05/18 05:34:17;;;;;;;14.13;7.55;;;;;;;23.94;49.39;102054.53;5082119;28;20407;-59
2022/05/18 05:36:43;;;;;;;15.00;8.32;;;;;;;23.96;49.49;102054.38;5087192;28;20139;-61
2022/05/18 05:39:10;;;;;;;16.90;7.50;;;;;;;23.96;49.10;102057.06;5088642;28;20051;-60
2022/05/18 05:41:37;;;;;;;12.50;8.00;;;;;;;23.95;48.91;102056.22;5082496;28;20139;-60
2022/05/18 05:44:04;;;;;;;14.88;7.78;;;;;;;23.96;49.15;102046.25;5089751;28;20041;-61
2022/05/18 05:46:30;;;;;;;13.82;7.47;;;;;;;23.95;49.21;102047.25;5088988;28;20044;-59
2022/05/18 05:48:57;;;;;;;13.45;7.43;;;;;;;23.97;48.68;102051.50;5085461;28;20052;-60
2022/05/18 05:51:23;;;;;;;13.30;8.57;;;;;;;23.97;48.92;102048.81;5088800;28;20036;-61
2022/05/18 05:53:51;;;;;;;13.48;8.15;;;;;;;23.98;49.27;102049.66;5091328;28;20039;-60
2022/05/18 05:56:20;;;;;;;12.65;8.15;;;;;;;23.98;48.58;102055.06;5090173;28;20131;-61
2022/05/18 05:58:50;;;;;;;17.33;8.68;;;;;;;23.96;48.98;102060.66;5086926;28;20119;-61
2022/05/18 06:01:18;;;;;;;13.05;7.57;;;;;;;23.98;49.19;102060.47;5089989;28;20062;-60
2022/05/18 06:03:46;;;;;;;11.98;7.57;;;;;;;23.97;48.86;102065.06;5087035;28;20060;-60
2022/05/18 06:06:13;;;;;;;11.80;7.30;;;;;;;23.98;48.48;102065.91;5068311;28;20050;-60
2022/05/18 06:08:40;;;;;;;13.48;8.35;;;;;;;23.97;49.01;102077.75;5089786;28;20040;-60
2022/05/18 06:11:09;;;;;;;13.25;7.35;;;;;;;23.96;48.63;102076.91;5086786;28;20127;-60
2022/05/18 06:13:36;;;;;;;14.30;7.85;;;;;;;23.97;48.60;102077.75;5086866;28;20081;-61
2022/05/18 06:16:03;;;;;;;15.50;8.65;;;;;;;23.98;49.19;102079.44;5086043;28;20040;-60
2022/05/18 06:18:30;;;;;;;13.27;7.75;;;;;;;23.97;48.49;102086.72;5088034;28;20036;-60
2022/05/18 06:20:57;;;;;;;15.50;8.68;;;;;;;23.98;48.42;102087.56;5089468;28;20122;-61
2022/05/18 06:23:24;;;;;;;17.50;8.45;;;;;;;23.98;48.62;102095.69;5088098;28;20146;-61
2022/05/18 06:25:51;;;;;;;12.65;7.70;;;;;;;23.99;48.66;102097.38;5088124;28;20075;-61
2022/05/18 06:28:18;;;;;;;13.30;7.28;;;;;;;23.98;49.19;102096.53;5089418;28;20171;-62
2022/05/18 06:30:44;;;;;;;13.90;9.15;;;;;;;23.99;49.27;102095.50;5087435;28;20050;-60
2022/05/18 06:33:12;;;;;;;11.50;7.32;;;;;;;23.99;49.18;102098.22;5090230;28;20066;-60
2022/05/18 06:35:38;;;;;;;13.63;8.45;;;;;;;24.00;48.51;102101.78;5088742;28;20052;-60
2022/05/18 06:38:13;;;;;;;10.13;6.78;;;;;;;24.01;48.83;102109.75;5089693;28;20117;-61
2022/05/18 06:43:25;;;;;;;12.93;7.50;;;;;;;24.01;49.22;102104.34;5087252;28;20048;-62
2022/05/18 06:45:52;;;;;;;12.80;7.45;;;;;;;24.01;49.29;102117.03;5088822;28;20126;-59
2022/05/18 06:48:19;;;;;;;18.77;9.18;;;;;;;24.02;49.00;102116.88;5087301;28;20827;-60
2022/05/18 06:51:07;;;;;;;13.60;7.10;;;;;;;24.02;49.23;102121.44;5087467;28;20048;-60
2022/05/18 06:53:34;;;;;;;10.05;6.55;;;;;;;24.02;49.05;102125.00;5088605;28;20374;-60
2022/05/18 06:56:01;;;;;;;11.88;6.28;;;;;;;24.03;49.37;102128.53;5084898;28;20054;-60
2022/05/18 06:58:31;;;;;;;11.27;7.20;;;;;;;24.02;48.61;102138.53;5089334;28;20077;-60
2022/05/18 07:01:01;;;;;;;11.65;6.32;;;;;;;24.04;48.73;102139.22;5088397;28;20044;-62
2022/05/18 07:03:28;;;;;;;10.02;6.20;;;;;;;24.05;48.89;102146.34;5087359;28;20130;-61
2022/05/18 07:05:55;;;;;;;12.23;6.38;;;;;;;24.06;48.96;102155.31;5092860;28;20136;-61
2022/05/18 07:08:21;;;;;;;8.07;5.50;;;;;;;24.06;48.98;102145.31;5093247;28;20051;-60
2022/05/18 07:10:48;;;;;;;12.15;6.38;;;;;;;24.08;48.61;102142.44;5092183;28;20048;-61
2022/05/18 07:13:17;;;;;;;9.68;5.97;;;;;;;24.07;48.86;102147.00;5092199;28;20046;-60
2022/05/18 07:15:46;;;;;;;9.65;6.18;;;;;;;24.08;48.93;102148.72;5091239;28;20126;-60
2022/05/18 07:18:14;;;;;;;10.30;6.32;;;;;;;24.09;48.57;102150.41;5089283;28;20063;-61
2022/05/18 07:20:41;;;;;;;13.73;7.15;;;;;;;24.09;48.88;102155.84;5093418;28;20040;-60
2022/05/18 07:23:08;;;;;;;11.55;5.85;;;;;;;24.10;49.21;102156.69;5090820;28;20423;-59
2022/05/18 07:25:36;;;;;;;8.52;5.55;;;;;;;24.10;49.00;102152.13;5088166;28;20230;-60
2022/05/18 07:28:03;;;;;;;10.18;5.82;;;;;;;24.11;49.16;102142.13;5090301;28;20044;-61
2022/05/18 07:30:49;;;;;;;9.80;5.57;;;;;;;24.12;49.04;102144.69;5090773;28;20038;-60
2022/05/18 07:33:16;;;;;;;14.25;5.60;;;;;;;24.12;49.16;102160.06;5091612;28;20048;-60
2022/05/18 07:35:43;;;;;;;8.35;5.20;;;;;;;24.12;48.84;102154.66;5090208;28;20036;-60
2022/05/18 07:38:10;;;;;;;10.05;5.50;;;;;;;24.13;48.84;102165.34;5089499;28;20395;-62
2022/05/18 07:40:57;;;;;;;8.20;5.25;;;;;;;24.14;49.10;102163.47;5075010;28;20048;-60
2022/05/18 07:43:24;;;;;;;9.35;5.03;;;;;;;24.13;48.55;102168.06;5091272;28;20068;-60
2022/05/18 07:45:53;;;;;;;9.18;5.45;;;;;;;24.14;48.82;102158.06;5092324;28;20132;-59
2022/05/18 07:48:21;;;;;;;9.88;6.15;;;;;;;24.14;48.90;102163.47;5089833;28;20473;-60
2022/05/18 07:50:49;;;;;;;7.50;5.70;;;;;;;24.16;48.57;102168.72;5090738;28;20455;-60
2022/05/18 07:53:16;;;;;;;7.38;5.18;;;;;;;24.16;49.16;102171.44;5092100;28;20044;-61
2022/05/18 07:55:43;;;;;;;7.93;4.72;;;;;;;24.16;48.71;102169.56;5091645;28;20391;-60
2022/05/18 07:58:12;;;;;;;8.18;4.65;;;;;;;24.16;48.87;102166.84;5089474;28;20131;-62
2022/05/18 08:00:39;;;;;;;8.18;4.82;;;;;;;24.17;48.62;102160.44;5088360;28;20251;-61
2022/05/18 08:03:07;;;;;;;8.57;4.97;;;;;;;24.17;49.10;102179.41;5092213;28;20129;-60
2022/05/18 08:05:35;;;;;;;5.20;4.03;;;;;;;24.18;48.70;102189.22;5090917;28;20123;-61
2022/05/18 08:08:07;;;;;;;9.32;4.85;;;;;;;24.18;49.22;102191.94;5091430;28;20132;-60
2022/05/18 08:16:04;;;;;;;6.80;4.63;;;;;;;24.19;48.45;102193.63;5091312;28;20071;-60
2022/05/18 08:18:31;;;;;;;8.02;4.60;;;;;;;24.20;49.14;102200.78;5088323;28;20074;-60
2022/05/18 08:20:57;;;;;;;6.78;4.25;;;;;;;24.21;48.75;102204.31;5085939;28;20406;-61
2022/05/18 08:23:25;;;;;;;7.28;4.68;;;;;;;24.21;48.88;102209.75;5089666;28;20138;-60
2022/05/18 08:25:54;;;;;;;5.28;3.92;;;;;;;24.22;49.05;102216.84;5090758;28;20044;-61
2022/05/18 08:28:21;;;;;;;7.53;5.15;;;;;;;24.21;48.47;102213.28;5090466;28;20119;-60
2022/05/18 08:30:47;;;;;;;7.40;4.18;;;;;;;24.22;48.69;102215.00;5090660;28;20050;-60
2022/05/18 08:33:14;;;;;;;7.80;4.30;;;;;;;24.22;48.97;102217.69;5093351;28;20381;-61
2022/05/18 08:35:44;;;;;;;7.53;4.30;;;;;;;24.24;48.82;102225.66;5087488;28;20079;-61
2022/05/18 08:38:11;;;;;;;5.93;4.32;;;;;;;24.23;48.83;102224.81;5089997;28;20474;-60
2022/05/18 08:40:54;;;;;;;6.38;4.30;;;;;;;24.25;48.70;102227.38;5091129;28;20086;-61
2022/05/18 08:43:32;;;;;;;6.05;3.92;;;;;;;24.24;48.49;102231.94;5085928;28;20492;-62
2022/05/18 08:46:30;;;;;;;6.53;3.92;;;;;;;24.25;48.29;102230.09;5085730;28;20070;-60
2022/05/18 08:49:09;;;;;;;5.20;3.80;;;;;;;24.27;48.62;102233.47;5087487;28;20040;-59
2022/05/18 08:52:20;;;;;;;9.18;4.20;;;;;;;24.26;48.42;102238.03;5087822;28;20048;-60
2022/05/18 08:55:05;;;;;;;6.32;4.00;;;;;;;24.28;48.98;102240.56;5035791;28;20039;-60
2022/05/18 08:57:44;;;;;;;6.97;3.78;;;;;;;24.28;48.86;102236.03;5088597;28;20044;-59
2022/05/18 09:00:24;;;;;;;7.75;3.83;;;;;;;24.29;48.24;102242.31;5086407;28;20444;-60
2022/05/18 09:03:00;;;;;;;7.10;3.67;;;;;;;24.29;48.67;102248.56;5087228;28;20250;-60
2022/05/18 09:05:35;;;;;;;6.65;3.72;;;;;;;24.30;48.36;102249.41;5087775;28;20047;-60
2022/05/18 09:08:10;;;;;;;7.45;3.25;;;;;;;24.31;48.60;102246.53;5085918;28;20139;-61
2022/05/18 09:10:49;;;;;;;5.90;3.63;;;;;;;24.33;48.47;102246.38;5089455;28;20491;-60
2022/05/18 09:13:16;;;;;;;6.38;3.20;;;;;;;24.34;48.38;102245.38;5086275;28;20056;-59
2022/05/18 09:16:10;;;;;;;5.80;3.67;;;;;;;24.35;49.19;102245.19;5085193;28;20150;-59
2022/05/18 09:18:51;;;;;;;6.85;3.65;;;;;;;24.37;49.02;102245.06;5089017;28;20086;-60
2022/05/18 09:21:39;;;;;;;8.40;3.97;;;;;;;24.41;48.66;102242.91;5086830;28;20465;-59
2022/05/18 09:24:37;;;;;;;5.50;3.35;;;;;;;24.42;48.95;102250.00;5088250;28;20427;-61
2022/05/18 09:27:26;;;;;;;6.03;3.47;;;;;;;24.45;48.52;102242.41;5087648;28;20051;-61
2022/05/18 09:30:01;;;;;;;12.05;3.60;;;;;;;24.49;48.47;102243.78;5088149;28;20468;-60
2022/05/18 09:32:42;;;;;;;5.70;3.42;;;;;;;24.52;48.34;102237.16;5088330;28;20136;-60
2022/05/18 09:35:36;;;;;;;8.95;3.03;;;;;;;24.55;49.07;102239.56;5089795;28;20052;-59
2022/05/18 09:38:15;;;;;;;7.80;4.57;;;;;;;24.58;48.80;102240.09;5086941;28;20051;-60
2022/05/18 09:40:46;;;;;;;5.03;3.17;;;;;;;24.62;48.54;102248.75;5091279;28;20426;-60
2022/05/18 09:43:36;;;;;;;7.20;3.55;;;;;;;24.65;48.57;102239.44;5088586;28;20143;-59
2022/05/18 09:46:04;;;;;;;5.63;3.72;;;;;;;24.68;48.29;102244.53;5071495;28;20541;-60
2022/05/18 09:48:41;;;;;;;7.00;3.40;;;;;;;24.70;48.91;102246.06;5086559;28;20051;-60
2022/05/18 09:51:09;;;;;;;4.65;2.70;;;;;;;24.73;48.72;102245.75;5086528;28;20510;-60
2022/05/18 09:53:38;;;;;;;4.45;2.60;;;;;;;24.75;48.83;102249.13;5089715;28;20080;-60
2022/05/18 09:56:09;;;;;;;5.70;3.05;;;;;;;24.76;48.75;102248.09;5079862;28;20459;-61
2022/05/18 09:58:40;;;;;;;5.38;3.55;;;;;;;24.79;48.21;102247.78;5085313;28;20048;-60
2022/05/18 10:09:38;;;;;;;8.20;3.30;;;;;;;24.90;48.39;102256.66;5087718;28;20135;-61
2022/05/18 10:12:37;;;;;;;7.45;2.85;;;;;;;24.91;48.00;102255.63;5087521;28;20175;-58
2022/05/18 10:15:19;;;;;;;5.82;3.20;;;;;;;24.94;48.41;102258.84;5087065;28;20420;-59
2022/05/18 10:17:50;;;;;;;5.63;3.28;;;;;;;24.98;48.41;102260.22;5086325;28;20506;-59
2022/05/18 10:20:37;;;;;;;4.80;3.15;;;;;;;25.00;48.45;102260.88;5087837;28;20048;-60
2022/05/18 10:23:34;;;;;;;7.75;3.00;;;;;;;25.00;48.39;102258.19;5086945;28;20062;-61
2022/05/18 10:26:01;;;;;;;5.82;2.88;;;;;;;25.03;48.09;102254.31;5088063;28;20052;-60
2022/05/18 10:28:41;;;;;;;10.57;3.17;;;;;;;25.05;48.28;102258.56;5085908;28;20045;-60
2022/05/18 10:31:22;;;;;;;8.20;2.83;;;;;;;25.07;47.99;102256.50;5082719;28;20127;-60
2022/05/18 10:33:48;;;;;;;11.32;3.35;;;;;;;25.07;48.02;102242.94;5086690;28;20048;-60
2022/05/18 10:36:24;;;;;;;5.10;3.15;;;;;;;25.08;47.96;102250.06;5094443;28;20036;-60
2022/05/18 10:38:55;;;;;;;9.18;3.28;;;;;;;25.08;48.26;102243.78;5086120;28;20059;-61
2022/05/18 10:41:28;;;;;;;6.72;2.75;;;;;;;25.09;48.35;102240.13;5091606;28;20048;-62
2022/05/18 10:43:55;;;;;;;5.72;3.10;;;;;;;25.09;48.25;102242.81;5090651;28;20087;-62
2022/05/18 10:46:37;;;;;;;4.50;2.67;;;;;;;25.09;48.16;102242.81;5090981;28;20071;-61
2022/05/18 10:49:30;;;;;;;6.28;2.20;;;;;;;25.07;48.46;102248.38;5089480;28;20051;-61
2022/05/18 10:52:26;;;;;;;6.65;2.65;;;;;;;25.06;48.58;102246.69;5072516;28;20761;-61
2022/05/18 10:54:58;;;;;;;4.80;3.00;;;;;;;25.07;48.51;102251.09;5060820;28;20499;-61
2022/05/18 10:57:54;;;;;;;6.85;2.70;;;;;;;25.04;48.17;102248.69;5087795;28;20059;-62
2022/05/18 11:00:28;;;;;;;5.55;2.92;;;;;;;25.04;48.31;102245.97;5043713;28;20044;-61
2022/05/18 11:03:24;;;;;;;4.15;2.40;;;;;;;25.03;48.62;102247.00;5093727;28;20327;-61
2022/05/18 11:06:13;;;;;;;5.35;2.47;;;;;;;25.03;48.22;102243.44;5093846;28;20050;-62
2022/05/18 11:08:40;;;;;;;7.72;2.58;;;;;;;25.03;48.21;102249.72;5090152;28;20135;-61
2022/05/18 11:11:41;;;;;;;5.30;2.67;;;;;;;25.02;48.43;102248.03;5094346;28;20131;-61
2022/05/18 11:14:20;;;;;;;5.18;2.95;;;;;;;25.02;48.62;102248.03;5076807;28;20459;-60
2022/05/18 11:17:01;;;;;;;5.15;2.40;;;;;;;25.03;48.63;102252.44;5093591;28;20051;-59
2022/05/18 11:19:47;;;;;;;4.13;2.40;;;;;;;25.02;48.60;102249.91;5091808;28;20119;-60
2022/05/18 11:22:51;;;;;;;4.80;2.50;;;;;;;25.02;48.13;102248.03;5086193;28;20076;-60
2022/05/18 11:25:29;;;;;;;4.78;2.10;;;;;;;25.03;48.47;102252.44;5051473;28;20123;-61
2022/05/18 11:28:29;;;;;;;8.43;2.53;;;;;;;25.05;48.05;102255.84;5091023;28;20048;-59
2022/05/18 11:31:34;;;;;;;3.50;2.10;;;;;;;25.05;48.00;102255.84;5091021;28;20385;-61
2022/05/18 11:34:21;;;;;;;6.00;2.40;;;;;;;25.08;48.14;102249.22;5089786;28;20127;-61
2022/05/18 11:37:24;;;;;;;3.83;2.35;;;;;;;25.10;48.15;102247.22;5088347;28;20184;-62
2022/05/18 11:40:33;;;;;;;7.95;2.58;;;;;;;25.13;47.88;102246.03;5068194;28;20123;-61
2022/05/18 11:43:32;;;;;;;6.63;2.38;;;;;;;25.17;48.27;102247.44;5052996;28;20518;-61
2022/05/18 11:46:18;;;;;;;11.15;3.10;;;;;;;25.21;48.26;102251.50;5092119;28;20040;-61
2022/05/18 11:49:43;;;;;;;12.70;3.30;;;;;;;25.24;49.18;102240.28;5089655;28;20052;-60
2022/05/18 11:52:37;;;;;;;18.92;4.28;;;;;;;25.27;49.50;102248.09;5050840;28;20063;-60
2022/05/18 11:55:20;;;;;;;16.00;4.40;;;;;;;25.30;50.14;102242.34;5086848;28;20040;-61
2022/05/18 11:58:05;;;;;;;28.23;5.78;;;;;;;25.32;50.29;102245.72;5087564;28;20079;-60
2022/05/18 12:00:50;;;;;;;31.48;6.18;;;;;;;25.33;50.90;102226.56;5090718;28;20509;-60
2022/05/18 12:03:36;;;;;;;31.13;6.75;;;;;;;25.34;51.23;102217.41;5090691;28;20379;-62
2022/05/18 12:06:28;;;;;;;33.95;6.65;;;;;;;25.35;51.81;102218.25;5091953;28;20048;-60